Time;durP1;ratioP1;P1;durP2;ratioP2;P2;SDS_P1;SDS_P2;PMS_P1;PMS_P2;Temp;Humidity;BMP_temperature;BMP_pressure;BME280_temperature;BME280_humidity;BME280_pressure;Samples;Min_cycle;Max_cycle;Signal;HPM_P1;HPM_P2
2021/11/11 00:00:42;;;;;;;10.20;6.30;;;;;;;3.07;59.35;96285.81;5086687;28;20057;-73
2021/11/11 00:03:07;;;;;;;7.90;4.93;;;;;;;3.15;58.99;96295.88;5054465;28;20045;-73
2021/11/11 00:05:33;;;;;;;9.35;4.82;;;;;;;3.12;59.20;96304.50;5070859;28;20028;-72
2021/11/11 00:07:59;;;;;;;7.13;4.93;;;;;;;3.14;58.96;96289.03;5071899;28;20045;-73
2021/11/11 00:10:25;;;;;;;6.85;4.38;;;;;;;3.07;59.27;96282.41;5070723;28;20024;-73
2021/11/11 00:12:51;;;;;;;6.88;4.80;;;;;;;3.05;59.73;96290.16;5054183;28;20384;-73
2021/11/11 00:15:16;;;;;;;6.53;4.80;;;;;;;2.97;60.06;96286.13;5065166;28;20032;-73
2021/11/11 00:17:42;;;;;;;5.65;4.32;;;;;;;2.92;60.27;96283.69;5077322;28;20036;-73
2021/11/11 00:20:08;;;;;;;5.03;3.67;;;;;;;2.91;60.31;96292.28;5053982;28;20082;-72
2021/11/11 00:22:34;;;;;;;6.47;4.00;;;;;;;2.85;60.38;96292.47;5087124;28;20039;-73
2021/11/11 00:25:00;;;;;;;13.02;6.72;;;;;;;2.73;61.23;96287.66;5073848;28;20084;-72
2021/11/11 00:27:25;;;;;;;7.13;5.47;;;;;;;2.65;61.40;96281.03;5073569;28;20048;-73
2021/11/11 00:29:51;;;;;;;8.90;7.63;;;;;;;2.58;61.14;96278.69;5090308;28;20077;-73
2021/11/11 00:32:16;;;;;;;11.85;9.43;;;;;;;2.47;60.97;96266.16;5090439;28;20028;-73
2021/11/11 00:34:43;;;;;;;8.05;6.35;;;;;;;2.50;61.41;96278.91;5079801;28;20032;-73
2021/11/11 00:37:09;;;;;;;8.57;5.63;;;;;;;2.42;61.60;96278.25;5053807;28;20031;-73
2021/11/11 00:39:34;;;;;;;7.85;5.10;;;;;;;2.37;61.85;96285.28;5070270;28;20040;-73
2021/11/11 00:42:00;;;;;;;8.80;4.72;;;;;;;2.35;61.60;96282.72;5050542;28;20090;-73
2021/11/11 00:44:25;;;;;;;7.10;4.85;;;;;;;2.33;61.50;96276.78;5066116;28;20035;-73
2021/11/11 00:46:51;;;;;;;5.72;4.53;;;;;;;2.33;61.67;96275.97;5069284;28;20036;-73
2021/11/11 00:49:16;;;;;;;5.60;4.32;;;;;;;2.27;61.46;96273.56;5071242;28;20418;-73
2021/11/11 00:51:43;;;;;;;7.30;5.07;;;;;;;2.35;60.46;96267.34;5073516;28;20406;-72
2021/11/11 00:54:08;;;;;;;6.95;4.82;;;;;;;2.39;61.06;96278.34;5054000;28;20028;-73
2021/11/11 00:56:34;;;;;;;8.73;6.00;;;;;;;2.38;60.91;96274.13;5070894;28;20036;-73
2021/11/11 00:58:59;;;;;;;9.60;5.05;;;;;;;2.34;60.86;96262.25;5036900;28;20032;-73
2021/11/11 01:01:28;;;;;;;8.23;5.82;;;;;;;2.21;60.98;96260.03;5061479;28;20524;-73
2021/11/11 01:03:55;;;;;;;6.45;4.32;;;;;;;2.18;61.62;96267.81;5076527;28;20437;-73
2021/11/11 01:06:21;;;;;;;7.25;4.90;;;;;;;1.97;61.17;96240.16;5069679;28;20041;-73
2021/11/11 01:08:48;;;;;;;7.40;4.60;;;;;;;2.15;61.29;96260.19;5070077;28;20489;-73
2021/11/11 01:11:13;;;;;;;6.75;5.20;;;;;;;2.18;61.93;96260.09;5064200;28;20538;-73
2021/11/11 01:13:39;;;;;;;7.22;5.68;;;;;;;2.07;62.07;96243.34;5089557;28;20032;-73
2021/11/11 01:16:04;;;;;;;8.52;5.40;;;;;;;2.09;61.79;96244.13;5089497;28;20028;-73
2021/11/11 01:18:30;;;;;;;6.93;4.85;;;;;;;2.19;61.88;96256.66;5073346;28;20032;-73
2021/11/11 01:20:55;;;;;;;6.10;4.10;;;;;;;2.07;62.22;96241.63;5082487;28;20036;-73
2021/11/11 01:23:21;;;;;;;7.47;5.35;;;;;;;2.11;62.58;96257.75;5063498;28;20051;-72
2021/11/11 01:25:46;;;;;;;7.70;5.32;;;;;;;1.99;62.68;96243.53;5056474;28;20028;-73
2021/11/11 01:28:12;;;;;;;13.15;7.22;;;;;;;2.00;62.72;96252.91;5053086;28;20490;-73
2021/11/11 01:30:39;;;;;;;12.70;6.95;;;;;;;1.95;63.17;96249.59;5070118;28;20031;-73
2021/11/11 01:33:05;;;;;;;7.25;4.82;;;;;;;1.77;62.88;96235.56;5071641;28;20036;-73
2021/11/11 01:35:31;;;;;;;8.95;5.07;;;;;;;1.81;62.71;96259.38;5077093;28;20020;-73
2021/11/11 01:37:56;;;;;;;7.43;4.72;;;;;;;1.72;63.14;96247.66;5071383;28;20526;-72
2021/11/11 01:40:22;;;;;;;8.77;4.45;;;;;;;1.68;63.12;96252.00;5073770;28;20545;-73
2021/11/11 01:42:52;;;;;;;7.97;5.28;;;;;;;1.65;63.21;96248.69;5047680;28;20058;-72
2021/11/11 01:45:27;;;;;;;6.45;4.75;;;;;;;1.62;63.78;96248.78;5071945;28;20120;-73
2021/11/11 01:47:53;;;;;;;8.52;5.88;;;;;;;1.43;63.34;96236.41;5057298;28;20467;-73
2021/11/11 01:50:19;;;;;;;8.60;5.47;;;;;;;1.42;63.75;96236.44;5072226;28;20059;-73
2021/11/11 01:52:44;;;;;;;7.93;4.78;;;;;;;1.44;63.73;96250.06;5090994;28;20036;-73
2021/11/11 01:55:09;;;;;;;9.93;6.55;;;;;;;1.41;64.01;96245.84;5051701;28;20036;-73
2021/11/11 01:57:35;;;;;;;8.20;5.75;;;;;;;1.40;64.10;96244.16;5055997;28;20519;-73
2021/11/11 02:00:02;;;;;;;7.53;5.15;;;;;;;1.51;63.45;96225.97;5088639;28;20108;-73
2021/11/11 02:02:29;;;;;;;7.60;5.20;;;;;;;1.43;62.96;96238.13;5056364;28;20426;-73
2021/11/11 02:04:55;;;;;;;7.65;4.80;;;;;;;1.38;63.98;96239.97;5038765;28;20033;-73
2021/11/11 02:07:21;;;;;;;9.38;5.30;;;;;;;1.36;64.13;96232.31;5064101;28;20202;-73
2021/11/11 02:09:46;;;;;;;27.52;11.02;;;;;;;1.36;63.83;96234.88;5073077;28;20040;-73
2021/11/11 02:12:11;;;;;;;17.38;7.63;;;;;;;1.33;63.97;96230.66;5072461;28;20037;-73
2021/11/11 02:14:37;;;;;;;10.30;5.35;;;;;;;1.30;64.30;96225.59;5055944;28;20078;-73
2021/11/11 02:17:02;;;;;;;6.82;4.25;;;;;;;1.32;64.13;96230.72;5090524;28;20032;-73
2021/11/11 02:19:28;;;;;;;6.72;4.50;;;;;;;1.14;64.14;96233.69;5093003;28;20628;-73
2021/11/11 02:21:53;;;;;;;7.22;4.65;;;;;;;1.04;64.65;96221.13;5076059;28;20035;-73
2021/11/11 02:24:19;;;;;;;9.45;6.20;;;;;;;1.06;64.93;96221.09;5092930;28;20039;-73
2021/11/11 02:26:45;;;;;;;10.02;7.13;;;;;;;1.10;65.03;96222.69;5092720;28;20040;-73
2021/11/11 02:29:10;;;;;;;11.40;7.30;;;;;;;0.83;64.86;96180.66;5089800;28;20016;-73
2021/11/11 02:31:36;;;;;;;8.95;6.65;;;;;;;1.13;64.73;96227.72;5084146;28;20027;-74
2021/11/11 02:34:02;;;;;;;10.60;6.70;;;;;;;1.11;65.37;96229.47;5084114;28;20028;-72
2021/11/11 02:36:28;;;;;;;7.40;5.50;;;;;;;1.06;65.04;96224.50;5078820;28;20478;-72
2021/11/11 02:38:54;;;;;;;9.25;5.35;;;;;;;1.05;65.13;96216.84;5055713;28;20043;-72
2021/11/11 02:41:20;;;;;;;6.50;4.85;;;;;;;1.03;65.19;96218.56;5076547;28;20032;-72
2021/11/11 02:43:46;;;;;;;9.50;5.32;;;;;;;1.04;65.21;96223.69;5064784;28;20050;-73
2021/11/11 02:46:11;;;;;;;7.75;5.78;;;;;;;1.03;65.12;96211.75;5092770;28;20027;-72
2021/11/11 02:48:37;;;;;;;6.97;5.03;;;;;;;1.02;65.11;96212.63;5093111;28;20040;-71
2021/11/11 02:51:02;;;;;;;6.25;4.75;;;;;;;1.03;65.38;96216.88;5087289;28;20043;-71
2021/11/11 02:53:27;;;;;;;6.85;5.03;;;;;;;1.03;65.35;96216.03;5078198;28;20510;-72
2021/11/11 02:55:53;;;;;;;7.95;5.20;;;;;;;1.00;65.85;96219.50;5069313;28;20025;-72
2021/11/11 02:58:19;;;;;;;7.43;5.60;;;;;;;1.02;65.27;96211.78;5072451;28;20036;-72
2021/11/11 03:00:51;;;;;;;9.02;5.18;;;;;;;1.05;65.60;96204.03;5073074;28;20056;-72
2021/11/11 03:03:17;;;;;;;9.23;5.55;;;;;;;1.03;65.47;96213.47;5091535;28;20471;-72
2021/11/11 03:05:42;;;;;;;9.00;5.93;;;;;;;0.94;65.30;96214.50;5092945;28;20032;-72
2021/11/11 03:08:08;;;;;;;7.40;5.20;;;;;;;0.92;65.59;96213.72;5067100;28;20539;-71
2021/11/11 03:10:35;;;;;;;8.95;5.10;;;;;;;0.95;65.71;96210.22;5069722;28;20024;-72
2021/11/11 03:13:00;;;;;;;9.40;5.43;;;;;;;0.92;66.22;96216.28;5053321;28;20094;-71
2021/11/11 03:15:26;;;;;;;6.90;4.85;;;;;;;0.87;66.13;96200.19;5070804;28;20020;-72
2021/11/11 03:17:52;;;;;;;10.60;5.45;;;;;;;0.88;66.20;96202.69;5074594;28;20571;-71
2021/11/11 03:20:17;;;;;;;10.43;7.30;;;;;;;0.87;66.61;96206.16;5091238;28;20051;-71
2021/11/11 03:22:43;;;;;;;8.45;5.63;;;;;;;0.85;66.28;96189.97;5090713;28;20035;-72
2021/11/11 03:25:14;;;;;;;8.57;7.05;;;;;;;0.85;66.04;96196.81;5091841;28;20036;-72
2021/11/11 03:27:39;;;;;;;7.20;4.97;;;;;;;0.72;66.03;96183.44;5073360;28;20035;-72
2021/11/11 03:30:07;;;;;;;8.57;6.00;;;;;;;0.72;65.79;96197.97;5053995;28;20033;-71
2021/11/11 03:32:32;;;;;;;9.63;6.07;;;;;;;0.67;66.31;96190.41;5055549;28;20593;-72
2021/11/11 03:34:58;;;;;;;8.88;5.22;;;;;;;0.68;66.47;96191.25;5090881;28;20031;-72
2021/11/11 03:37:23;;;;;;;8.82;5.72;;;;;;;0.65;66.39;96185.31;5091915;28;20051;-72
2021/11/11 03:39:49;;;;;;;8.90;5.20;;;;;;;0.74;66.20;96191.09;5074301;28;20024;-72
2021/11/11 03:42:15;;;;;;;7.47;5.28;;;;;;;0.76;66.50;96190.19;5091161;28;20494;-72
2021/11/11 03:44:41;;;;;;;9.40;6.93;;;;;;;0.75;66.36;96188.50;5070721;28;20571;-72
2021/11/11 03:47:07;;;;;;;9.02;5.00;;;;;;;0.67;65.60;96177.63;5070834;28;20028;-72
2021/11/11 03:49:33;;;;;;;9.10;5.88;;;;;;;0.52;65.92;96162.59;5053334;28;20510;-73
2021/11/11 03:51:58;;;;;;;6.82;5.07;;;;;;;0.56;66.40;96177.03;5089362;28;20135;-72
2021/11/11 03:54:26;;;;;;;8.40;5.28;;;;;;;0.49;66.21;96171.19;5090214;28;20477;-71
2021/11/11 03:56:53;;;;;;;7.38;5.28;;;;;;;0.44;66.63;96152.53;5073886;28;20024;-71
2021/11/11 03:59:19;;;;;;;6.43;4.47;;;;;;;0.51;66.48;96174.56;5087609;28;20131;-72
2021/11/11 04:01:44;;;;;;;6.80;4.78;;;;;;;0.44;66.06;96166.16;5094058;28;20056;-71
2021/11/11 04:04:10;;;;;;;8.60;5.35;;;;;;;0.44;66.41;96161.03;5073306;28;20494;-72
2021/11/11 04:06:35;;;;;;;8.40;6.22;;;;;;;0.39;66.58;96155.22;5073567;28;20040;-71
2021/11/11 04:09:01;;;;;;;9.05;5.75;;;;;;;0.44;66.52;96160.22;5069505;28;20426;-71
2021/11/11 04:11:27;;;;;;;8.80;5.57;;;;;;;0.48;66.45;96163.56;5061235;28;20071;-71
2021/11/11 04:13:54;;;;;;;7.93;4.35;;;;;;;0.44;66.77;96162.75;5079452;28;20111;-72
2021/11/11 04:16:19;;;;;;;8.27;5.05;;;;;;;0.44;66.87;96162.75;5087885;28;20107;-72
2021/11/11 04:18:45;;;;;;;8.48;5.60;;;;;;;0.51;67.14;96173.72;5051160;28;20025;-72
2021/11/11 04:21:10;;;;;;;8.15;5.57;;;;;;;0.52;67.33;96165.16;5049601;28;20039;-72
2021/11/11 04:23:36;;;;;;;7.75;5.15;;;;;;;0.51;67.29;96160.94;5089619;28;20036;-72
2021/11/11 04:26:10;;;;;;;12.45;6.85;;;;;;;0.43;67.36;96155.97;5072971;28;20028;-72
2021/11/11 04:29:13;;;;;;;10.57;6.35;;;;;;;0.45;67.67;96164.47;5055449;28;20033;-72
2021/11/11 04:31:30;;;;;;;10.57;6.85;;;;;;;0.39;67.21;96165.44;5071254;28;20050;-72
2021/11/11 04:34:00;;;;;;;10.38;6.45;;;;;;;0.36;67.85;96159.53;5070693;28;20033;-72
2021/11/11 04:44:32;;;;;;;8.25;4.50;;;;;;;0.37;67.37;96151.84;5070292;28;20392;-72
2021/11/11 05:05:21;;;;;;;7.20;4.60;;;;;;;0.31;67.45;96159.66;5070329;28;20078;-71
2021/11/11 05:07:47;;;;;;;6.78;3.88;;;;;;;0.28;67.02;96152.06;5073754;28;20044;-71
2021/11/11 05:10:14;;;;;;;6.57;4.18;;;;;;;0.21;67.17;96135.97;5073543;28;20063;-71
2021/11/11 05:12:40;;;;;;;9.07;5.50;;;;;;;0.28;67.74;96149.50;5069983;28;20537;-72
2021/11/11 05:15:06;;;;;;;8.43;5.68;;;;;;;0.33;67.52;96149.38;5072546;28;20074;-71
2021/11/11 05:17:32;;;;;;;8.07;4.55;;;;;;;0.34;67.53;96144.25;5090308;28;20039;-72
2021/11/11 05:19:57;;;;;;;8.65;5.30;;;;;;;0.36;67.90;96155.28;5073132;28;20032;-71
2021/11/11 05:22:23;;;;;;;7.18;4.75;;;;;;;0.37;67.55;96149.28;5073152;28;20052;-72
2021/11/11 05:24:48;;;;;;;7.20;5.10;;;;;;;0.22;67.36;96135.13;5091503;28;20027;-71
2021/11/11 05:27:14;;;;;;;8.02;5.53;;;;;;;0.24;67.82;96139.34;5091540;28;20040;-72
2021/11/11 05:29:41;;;;;;;8.20;5.32;;;;;;;0.30;67.99;96152.84;5073168;28;20027;-72
2021/11/11 05:32:06;;;;;;;7.13;4.93;;;;;;;0.31;67.81;96146.03;5069758;28;20111;-71
2021/11/11 05:34:32;;;;;;;7.82;5.00;;;;;;;0.33;68.38;96144.25;5069817;28;20056;-71
2021/11/11 05:36:57;;;;;;;7.00;4.50;;;;;;;0.37;68.01;96146.72;5074690;28;20029;-72
2021/11/11 05:39:23;;;;;;;8.38;5.50;;;;;;;0.35;67.86;96135.69;5074421;28;20105;-72
2021/11/11 05:41:48;;;;;;;7.88;5.25;;;;;;;0.34;67.68;96145.97;5073502;28;20025;-72
2021/11/11 05:44:13;;;;;;;7.93;5.15;;;;;;;0.34;67.50;96148.53;5074908;28;20021;-73
2021/11/11 05:46:39;;;;;;;15.45;8.70;;;;;;;0.32;67.73;96155.38;5090287;28;20043;-73
2021/11/11 05:49:04;;;;;;;16.15;9.00;;;;;;;0.34;68.04;96151.91;5076953;28;20028;-73
2021/11/11 05:51:30;;;;;;;10.68;7.05;;;;;;;0.34;67.85;96139.13;5093546;28;20032;-73
2021/11/11 05:53:55;;;;;;;11.55;7.22;;;;;;;0.42;68.25;96147.47;5076917;28;20486;-72
2021/11/11 05:56:21;;;;;;;12.02;7.25;;;;;;;0.33;68.41;96152.75;5085378;28;20025;-72
2021/11/11 05:58:46;;;;;;;10.85;7.28;;;;;;;0.37;67.97;96149.28;5082389;28;20035;-71
2021/11/11 06:01:11;;;;;;;9.82;6.82;;;;;;;0.41;68.38;96144.94;5093136;28;20075;-72
2021/11/11 06:03:37;;;;;;;10.60;6.45;;;;;;;0.61;68.64;96155.59;5072978;28;20402;-72
2021/11/11 06:06:02;;;;;;;9.82;6.85;;;;;;;0.72;68.43;96157.88;5039608;28;20509;-72
2021/11/11 06:08:28;;;;;;;10.13;6.65;;;;;;;0.73;68.23;96139.13;5072628;28;20040;-74
2021/11/11 06:10:53;;;;;;;10.88;7.07;;;;;;;0.93;68.48;96150.59;5039814;28;20403;-72
2021/11/11 06:13:20;;;;;;;8.82;6.75;;;;;;;1.01;68.66;96153.81;5068682;28;20044;-72
2021/11/11 06:15:46;;;;;;;11.68;7.50;;;;;;;1.11;67.83;96156.13;5086513;28;20037;-73
2021/11/11 06:18:12;;;;;;;10.85;7.97;;;;;;;1.14;68.19;96159.47;5091957;28;20028;-72
2021/11/11 06:20:44;;;;;;;11.27;7.30;;;;;;;1.16;68.19;96150.03;5076156;28;20035;-73
2021/11/11 06:23:10;;;;;;;12.10;8.38;;;;;;;1.28;67.76;96155.69;5086888;28;20025;-72
2021/11/11 06:25:35;;;;;;;12.30;7.40;;;;;;;1.36;67.58;96165.72;5075182;28;20338;-73
2021/11/11 06:28:01;;;;;;;9.98;7.35;;;;;;;1.45;67.05;96167.22;5056262;28;20090;-73
2021/11/11 06:30:27;;;;;;;16.83;10.55;;;;;;;1.48;66.57;96162.03;5079914;28;20028;-73
2021/11/11 06:32:52;;;;;;;16.98;11.20;;;;;;;1.49;66.18;96168.81;5076499;28;20558;-73
2021/11/11 06:35:18;;;;;;;18.23;11.82;;;;;;;1.47;66.86;96163.72;5091110;28;20032;-73
2021/11/11 06:37:43;;;;;;;16.40;9.43;;;;;;;1.56;66.40;96166.06;5093120;28;20036;-72
2021/11/11 06:40:09;;;;;;;21.05;12.10;;;;;;;1.64;65.84;96170.13;5090258;28;20468;-73
2021/11/11 06:42:34;;;;;;;17.15;10.60;;;;;;;1.67;66.01;96176.03;5083592;28;20494;-75
2021/11/11 06:45:00;;;;;;;19.48;11.73;;;;;;;1.69;66.13;96166.56;5085208;28;20032;-73
2021/11/11 06:47:25;;;;;;;22.27;13.15;;;;;;;1.74;65.38;96162.16;5081803;28;20462;-73
2021/11/11 06:49:51;;;;;;;19.67;14.02;;;;;;;1.83;65.90;96160.25;5055271;28;20498;-73
2021/11/11 06:52:16;;;;;;;22.77;15.02;;;;;;;1.93;65.51;96162.53;5056016;28;20422;-73
2021/11/11 06:54:42;;;;;;;21.38;14.63;;;;;;;1.91;65.30;96153.19;5055790;28;20032;-73
2021/11/11 06:57:08;;;;;;;23.80;15.27;;;;;;;2.00;65.78;96160.63;5073495;28;20029;-73
2021/11/11 06:59:33;;;;;;;22.05;13.98;;;;;;;2.15;65.29;96154.25;5072222;28;20080;-73
2021/11/11 07:01:59;;;;;;;24.33;16.92;;;;;;;2.20;65.25;96145.53;5072159;28;20037;-73
2021/11/11 07:04:26;;;;;;;22.63;15.10;;;;;;;2.44;65.42;96153.38;5072218;28;20024;-73
2021/11/11 07:06:52;;;;;;;26.73;17.67;;;;;;;2.58;65.33;96151.25;5072926;28;20119;-73
2021/11/11 07:09:17;;;;;;;24.88;17.25;;;;;;;2.72;65.58;96132.84;5072009;28;20107;-73
2021/11/11 07:11:42;;;;;;;24.00;16.33;;;;;;;2.87;67.30;96128.97;5055362;28;20473;-73
2021/11/11 07:14:08;;;;;;;24.90;15.15;;;;;;;3.09;65.93;96134.25;5073254;28;20021;-73
2021/11/11 07:16:33;;;;;;;26.80;16.83;;;;;;;3.20;66.80;96131.34;5071629;28;20029;-73
2021/11/11 07:18:59;;;;;;;22.80;15.55;;;;;;;3.39;66.49;96123.88;5071859;28;20051;-73
2021/11/11 07:21:24;;;;;;;23.73;17.23;;;;;;;3.53;64.59;96125.06;5055030;28;20418;-73
2021/11/11 07:23:50;;;;;;;23.83;17.52;;;;;;;3.75;67.88;96120.03;5071872;28;20020;-73
2021/11/11 07:26:15;;;;;;;23.95;16.88;;;;;;;3.92;63.94;96122.00;5072536;28;20063;-72
2021/11/11 07:28:41;;;;;;;18.70;15.00;;;;;;;4.00;63.10;96112.25;5073279;28;20501;-73
2021/11/11 07:31:06;;;;;;;21.88;15.50;;;;;;;4.11;62.15;96111.88;5071429;28;20064;-73
2021/11/11 07:33:32;;;;;;;22.75;15.63;;;;;;;4.26;62.50;96110.47;5071556;28;20028;-73
2021/11/11 07:35:57;;;;;;;22.65;14.27;;;;;;;4.30;61.47;96106.91;5072399;28;20066;-73
2021/11/11 07:38:22;;;;;;;18.55;13.50;;;;;;;4.34;61.93;96099.88;5071557;28;20029;-73
2021/11/11 07:40:48;;;;;;;22.40;14.13;;;;;;;4.37;61.38;96100.59;5071523;28;20036;-73
2021/11/11 07:43:13;;;;;;;24.42;14.30;;;;;;;4.35;59.53;96092.13;5071835;28;20036;-73
2021/11/11 07:45:39;;;;;;;16.73;12.13;;;;;;;4.40;58.90;96102.22;5054663;28;20032;-73
2021/11/11 07:48:04;;;;;;;21.17;13.27;;;;;;;4.40;58.99;96102.22;5071843;28;20174;-73
2021/11/11 07:50:32;;;;;;;19.08;13.27;;;;;;;4.47;59.13;96091.66;5071619;28;20062;-73
2021/11/11 07:52:59;;;;;;;18.65;12.38;;;;;;;4.53;59.28;96090.56;5071476;28;20141;-73
2021/11/11 07:55:25;;;;;;;20.00;12.88;;;;;;;4.61;58.94;96080.81;5054561;28;20441;-73
2021/11/11 07:57:51;;;;;;;20.08;13.57;;;;;;;4.72;58.03;96084.72;5071227;28;20037;-73
2021/11/11 08:00:16;;;;;;;24.73;15.48;;;;;;;4.78;58.21;96094.75;5070981;28;20052;-73
2021/11/11 08:02:43;;;;;;;22.85;15.82;;;;;;;4.77;58.16;96087.94;5071070;28;20032;-73
2021/11/11 08:05:10;;;;;;;24.20;13.55;;;;;;;4.85;57.78;96091.91;5054437;28;20036;-72
2021/11/11 08:07:35;;;;;;;22.52;14.10;;;;;;;4.97;58.02;96084.56;5067717;28;20059;-72
2021/11/11 08:10:01;;;;;;;38.65;18.88;;;;;;;5.03;57.34;96085.16;5073370;28;20482;-73
2021/11/11 08:12:26;;;;;;;21.33;12.43;;;;;;;5.11;57.40;96082.25;5053394;28;20580;-73
2021/11/11 08:14:52;;;;;;;15.68;9.48;;;;;;;5.17;56.77;96076.84;5071670;28;20471;-72
2021/11/11 08:17:21;;;;;;;19.85;12.27;;;;;;;5.11;55.84;96082.25;5070229;28;20040;-73
2021/11/11 08:19:46;;;;;;;16.52;11.50;;;;;;;5.05;56.02;96061.91;5070056;28;20036;-73
2021/11/11 08:22:12;;;;;;;15.38;11.18;;;;;;;5.19;56.05;96064.75;5053597;28;20036;-73
2021/11/11 08:24:42;;;;;;;14.48;10.02;;;;;;;5.31;55.61;96065.97;5069913;28;20040;-73
2021/11/11 08:27:09;;;;;;;20.20;9.10;;;;;;;5.45;56.19;96062.81;5070074;28;20056;-72
2021/11/11 08:29:35;;;;;;;13.30;9.00;;;;;;;5.57;55.62;96060.56;5069871;28;20514;-73
2021/11/11 08:32:00;;;;;;;13.50;8.63;;;;;;;5.67;54.90;96060.97;5069990;28;20028;-72
2021/11/11 08:34:26;;;;;;;14.32;9.80;;;;;;;5.76;54.99;96052.81;5053131;28;20039;-73
2021/11/11 08:36:51;;;;;;;12.57;9.00;;;;;;;5.91;54.72;96058.25;5071229;28;20029;-73
2021/11/11 08:39:16;;;;;;;16.38;9.55;;;;;;;5.88;52.09;96033.41;5069808;28;20028;-73
2021/11/11 08:41:42;;;;;;;15.25;9.50;;;;;;;5.88;51.72;96050.59;5069818;28;20029;-73
2021/11/11 08:44:09;;;;;;;12.30;9.75;;;;;;;5.72;52.95;96046.16;5069821;28;20028;-73
2021/11/11 08:46:34;;;;;;;15.65;10.05;;;;;;;5.80;53.24;96046.66;5069674;28;20510;-73
2021/11/11 08:49:00;;;;;;;12.77;9.55;;;;;;;5.90;52.72;96047.06;5070897;28;20035;-73
2021/11/11 08:51:26;;;;;;;13.15;8.75;;;;;;;6.02;52.42;96038.00;5052952;28;20456;-73
2021/11/11 08:53:51;;;;;;;12.40;9.18;;;;;;;5.98;52.73;96023.53;5069553;28;20027;-73
2021/11/11 08:56:17;;;;;;;14.07;8.20;;;;;;;6.22;53.06;96032.75;5041319;28;20037;-73
2021/11/11 08:58:42;;;;;;;13.07;9.80;;;;;;;6.42;53.17;96038.72;5079919;28;20037;-73
2021/11/11 09:01:08;;;;;;;15.40;10.57;;;;;;;6.57;53.60;96032.81;5072589;28;20517;-73
2021/11/11 09:03:35;;;;;;;14.93;9.85;;;;;;;6.74;52.76;96032.00;5073206;28;20036;-73
2021/11/11 09:06:01;;;;;;;12.35;8.50;;;;;;;6.82;50.71;96024.72;5090218;28;20350;-73
2021/11/11 09:08:26;;;;;;;10.13;7.55;;;;;;;6.91;51.18;96024.28;5089845;28;20490;-73
2021/11/11 09:10:52;;;;;;;13.32;8.98;;;;;;;6.99;51.13;96008.38;5072824;28;20409;-73
2021/11/11 09:13:18;;;;;;;13.35;9.48;;;;;;;7.08;50.15;96015.69;5091748;28;20028;-74
2021/11/11 09:15:43;;;;;;;14.48;8.73;;;;;;;7.12;50.36;96009.44;5090134;28;20032;-73
2021/11/11 09:18:09;;;;;;;8.88;6.68;;;;;;;7.24;50.20;96007.16;5073271;28;20402;-73
2021/11/11 09:20:36;;;;;;;11.38;7.80;;;;;;;7.33;50.25;96006.72;5091147;28;20036;-73
2021/11/11 09:23:02;;;;;;;13.05;8.95;;;;;;;7.33;49.94;95998.97;5090452;28;20535;-73
2021/11/11 09:25:30;;;;;;;14.82;9.43;;;;;;;7.30;48.87;96001.69;5073137;28;20067;-73
2021/11/11 09:27:55;;;;;;;11.90;8.82;;;;;;;7.34;49.11;96004.03;5073219;28;20039;-73
2021/11/11 09:30:26;;;;;;;14.38;8.50;;;;;;;7.33;49.10;95988.63;5089825;28;20032;-73
2021/11/11 09:32:52;;;;;;;11.65;7.78;;;;;;;7.42;48.89;95985.56;5073948;28;20055;-73
2021/11/11 09:35:17;;;;;;;14.05;8.18;;;;;;;7.28;48.33;95970.75;5073107;28;20535;-73
2021/11/11 09:37:43;;;;;;;11.68;7.95;;;;;;;7.23;47.92;95982.25;5091240;28;20108;-73
2021/11/11 09:40:13;;;;;;;11.18;7.72;;;;;;;7.21;48.53;95976.31;5089943;28;20043;-73
2021/11/11 09:42:40;;;;;;;11.23;8.07;;;;;;;7.20;48.15;95978.06;5060273;28;20028;-73
2021/11/11 09:45:07;;;;;;;12.48;8.57;;;;;;;7.14;48.71;95966.28;5070307;28;20354;-73
2021/11/11 09:47:33;;;;;;;9.75;7.15;;;;;;;7.22;49.22;95946.97;5036006;28;20536;-73
2021/11/11 09:49:59;;;;;;;12.52;8.60;;;;;;;7.33;49.07;95960.19;5069563;28;20221;-73
2021/11/11 09:52:25;;;;;;;14.10;8.45;;;;;;;7.33;48.82;95944.69;5069420;28;20036;-73
2021/11/11 10:00:19;;;;;;;8.93;7.28;;;;;;;7.61;49.45;95929.38;5055627;28;20483;-73
2021/11/11 10:02:45;;;;;;;12.85;8.32;;;;;;;7.74;48.95;95941.63;5088966;28;20032;-72
2021/11/11 10:05:10;;;;;;;9.95;7.63;;;;;;;7.79;49.27;95930.13;5090764;28;20038;-73
2021/11/11 10:07:36;;;;;;;12.48;7.20;;;;;;;7.91;49.13;95935.53;5052704;28;20110;-73
2021/11/11 10:10:01;;;;;;;15.05;8.95;;;;;;;7.97;48.43;95936.06;5069178;28;20047;-72
2021/11/11 10:12:27;;;;;;;12.23;8.55;;;;;;;7.99;46.87;95926.44;5073544;28;20463;-72
2021/11/11 10:14:53;;;;;;;11.82;8.07;;;;;;;7.90;47.72;95934.72;5081002;28;20473;-73
2021/11/11 10:17:19;;;;;;;12.25;7.45;;;;;;;7.89;47.81;95921.88;5066304;28;20041;-73
2021/11/11 10:19:50;;;;;;;9.23;6.85;;;;;;;7.98;47.58;95916.19;5069204;28;20104;-73
2021/11/11 10:22:27;;;;;;;11.02;6.97;;;;;;;8.01;47.50;95910.84;5069375;28;20116;-73
2021/11/11 10:25:01;;;;;;;9.25;6.78;;;;;;;8.12;47.42;95907.66;5075255;28;20032;-73
2021/11/11 10:27:32;;;;;;;11.35;7.95;;;;;;;8.22;47.56;95898.47;5076969;28;20111;-73
2021/11/11 10:30:05;;;;;;;12.60;7.65;;;;;;;8.35;47.63;95904.59;5093999;28;20505;-72
2021/11/11 10:32:51;;;;;;;10.75;7.40;;;;;;;8.43;47.59;95899.03;5094376;28;20060;-72
2021/11/11 10:35:20;;;;;;;14.73;8.23;;;;;;;8.46;47.11;95897.09;5092716;28;20028;-73
2021/11/11 10:37:59;;;;;;;13.55;7.05;;;;;;;8.47;47.70;95877.22;5094210;28;20159;-72
2021/11/11 10:40:34;;;;;;;10.63;6.97;;;;;;;8.63;47.25;95890.09;5081534;28;20505;-73
2021/11/11 10:43:05;;;;;;;10.60;7.90;;;;;;;8.69;47.62;95887.16;5073961;28;20078;-73
2021/11/11 10:45:35;;;;;;;10.93;6.82;;;;;;;8.63;46.50;95877.97;5072427;28;20460;-72
2021/11/11 10:48:05;;;;;;;9.23;6.50;;;;;;;8.73;47.13;95873.13;5072246;28;20119;-72
2021/11/11 10:50:31;;;;;;;13.77;7.45;;;;;;;8.65;46.22;95865.78;5075050;28;20036;-73
2021/11/11 10:52:57;;;;;;;11.98;8.00;;;;;;;8.55;46.60;95875.00;5090015;28;20024;-73
2021/11/11 10:55:42;;;;;;;10.70;8.02;;;;;;;8.46;46.91;95876.38;5092290;28;20032;-73
2021/11/11 10:58:10;;;;;;;9.55;6.88;;;;;;;8.40;47.30;95878.50;5076155;28;20024;-73
2021/11/11 11:00:44;;;;;;;11.07;7.03;;;;;;;8.38;47.44;95870.75;5075662;28;20075;-73
2021/11/11 11:03:12;;;;;;;9.45;6.43;;;;;;;8.42;47.58;95867.13;5093904;28;20036;-73
2021/11/11 11:05:51;;;;;;;10.90;6.32;;;;;;;8.49;47.59;95860.66;5065937;28;20035;-73
2021/11/11 11:08:38;;;;;;;11.60;6.93;;;;;;;8.41;48.12;95829.22;5072035;28;20037;-73
2021/11/11 11:11:23;;;;;;;17.23;10.82;;;;;;;8.66;47.75;95851.06;5061766;28;20552;-73
2021/11/11 11:13:51;;;;;;;18.00;11.98;;;;;;;8.66;48.13;95835.53;5071688;28;20525;-73
2021/11/11 11:16:23;;;;;;;14.50;10.02;;;;;;;8.81;47.39;95845.00;5071640;28;20037;-73
2021/11/11 11:18:55;;;;;;;11.60;7.88;;;;;;;8.76;47.57;95841.00;5056507;28;20078;-73
2021/11/11 11:21:53;;;;;;;9.07;7.32;;;;;;;8.79;47.43;95836.47;5086681;28;20032;-73
2021/11/11 11:24:23;;;;;;;16.08;9.63;;;;;;;8.89;47.61;95836.78;5091487;28;20046;-73
2021/11/11 11:26:59;;;;;;;14.25;9.23;;;;;;;8.84;47.32;95829.28;5072340;28;20032;-72
2021/11/11 11:32:10;;;;;;;12.57;8.88;;;;;;;8.88;47.08;95809.19;5071528;28;20036;-73
2021/11/11 11:34:47;;;;;;;14.25;8.82;;;;;;;8.99;47.07;95811.13;5038154;28;20571;-73
2021/11/11 11:37:15;;;;;;;19.60;10.10;;;;;;;9.11;46.88;95815.56;5055518;28;20040;-73
2021/11/11 11:39:47;;;;;;;15.90;8.40;;;;;;;9.20;46.51;95809.81;5091465;28;20410;-73
2021/11/11 11:42:16;;;;;;;13.75;9.88;;;;;;;9.20;46.43;95804.63;5081507;28;20147;-73
2021/11/11 11:44:51;;;;;;;11.68;8.48;;;;;;;9.26;46.14;95804.25;5053368;28;20510;-73
2021/11/11 11:47:35;;;;;;;15.02;8.70;;;;;;;9.37;46.72;95796.63;5069840;28;20049;-73
2021/11/11 11:50:04;;;;;;;13.07;9.38;;;;;;;9.50;47.07;95791.53;5070592;28;20029;-73
2021/11/11 11:52:31;;;;;;;18.83;10.52;;;;;;;9.50;45.66;95793.25;5072090;28;20039;-73
2021/11/11 11:57:31;;;;;;;17.58;9.95;;;;;;;9.52;46.19;95783.63;5072100;28;20115;-73
2021/11/11 12:00:06;;;;;;;;;;;;;;;9.46;45.16;95781.44;5071974;28;20499;-72
2021/11/11 12:02:48;;;;;;;15.48;9.38;;;;;;;9.47;46.20;95778.75;5070504;28;19927;-72
2021/11/11 12:08:06;;;;;;;14.48;8.60;;;;;;;9.59;45.91;95765.00;5070476;28;20185;-73
2021/11/11 12:10:38;;;;;;;13.65;8.30;;;;;;;9.70;45.28;95771.28;5070314;28;20020;-73
2021/11/11 12:40:36;;;;;;;10.00;6.55;;;;;;;9.95;45.20;95728.97;5069917;28;20039;-73
2021/11/11 12:43:18;;;;;;;11.77;6.50;;;;;;;9.95;44.62;95728.97;5069971;28;20040;-73